Tributaries of Vltava river

river Berounka - water gauge Beroun

Date and time (UTC) H (cm) Q (m³/s)
6. 12. 2022 04:00 105 22.4
6. 12. 2022 03:00 104 22
6. 12. 2022 02:00 101 20
6. 12. 2022 01:00 103 21
6. 12. 2022 00:00 103 21
5. 12. 2022 23:00 103 21
5. 12. 2022 22:00 103 21
5. 12. 2022 21:00 104 22
5. 12. 2022 20:00 105 22
5. 12. 2022 19:00 102 21
5. 12. 2022 18:00 104 22
5. 12. 2022 17:00 103 21
5. 12. 2022 16:00 104 22

H - water level, Q - discharge

river Sázava - water gauge Nespeky

Date and time (UTC) H (cm) Q (m³/s)
6. 12. 2022 04:00 66 10.5
6. 12. 2022 03:00 66 11
6. 12. 2022 02:00 65 10
6. 12. 2022 01:00 64 10
6. 12. 2022 00:00 64 10
5. 12. 2022 23:00 64 10
5. 12. 2022 22:00 64 10
5. 12. 2022 21:00 64 10
5. 12. 2022 20:00 64 10
5. 12. 2022 19:00 64 10
5. 12. 2022 18:00 64 10
5. 12. 2022 17:00 64 10
5. 12. 2022 16:00 64 10

H - water level, Q - discharge

river Otava - water gauge Písek

Date and time (UTC) H (cm) Q (m³/s)
6. 12. 2022 04:00 78 16.5
6. 12. 2022 03:00 78 17
6. 12. 2022 02:00 77 16
6. 12. 2022 01:00 77 16
6. 12. 2022 00:00 76 16
5. 12. 2022 23:00 76 16
5. 12. 2022 22:00 76 16
5. 12. 2022 21:00 76 16
5. 12. 2022 20:00 76 16
5. 12. 2022 19:00 76 16
5. 12. 2022 18:00 76 16
5. 12. 2022 17:00 76 16
5. 12. 2022 16:00 76 16

H - water level, Q - discharge

river Lužnice - water gauge Bechyně

Date and time (UTC) H (cm) Q (m³/s)
6. 12. 2022 04:00 117 12.3
6. 12. 2022 03:00 111 10
6. 12. 2022 02:00 121 13
6. 12. 2022 01:00 116 11
6. 12. 2022 00:00 114 11
5. 12. 2022 23:00 114 11
5. 12. 2022 22:00 114 11
5. 12. 2022 21:00 114 11
5. 12. 2022 20:00 116 12
5. 12. 2022 19:00 111 10
5. 12. 2022 18:00 107 10
5. 12. 2022 17:00 108 8
5. 12. 2022 16:00 119 13

H - water level, Q - discharge
Source data
Labe Basin Vltava Basin Povodí Moravy ČHMÚ